sensor_id;sensor_type;location;lat;lon;timestamp;temperature;humidity
67157;SHT31;54086;50.126;8.710;2022-12-07T00:00:29;4.15;88.53
67157;SHT31;54086;50.126;8.710;2022-12-07T00:02:55;4.15;88.60
67157;SHT31;54086;50.126;8.710;2022-12-07T00:05:20;4.25;88.14
67157;SHT31;54086;50.126;8.710;2022-12-07T00:07:46;4.38;88.12
67157;SHT31;54086;50.126;8.710;2022-12-07T00:10:11;4.43;87.90
67157;SHT31;54086;50.126;8.710;2022-12-07T00:12:36;4.38;87.74
67157;SHT31;54086;50.126;8.710;2022-12-07T00:15:02;4.35;87.81
67157;SHT31;54086;50.126;8.710;2022-12-07T00:17:27;4.38;87.92
67157;SHT31;54086;50.126;8.710;2022-12-07T00:19:53;4.46;87.49
67157;SHT31;54086;50.126;8.710;2022-12-07T00:22:18;4.49;87.40
67157;SHT31;54086;50.126;8.710;2022-12-07T00:24:43;4.53;87.13
67157;SHT31;54086;50.126;8.710;2022-12-07T00:27:09;4.53;87.11
67157;SHT31;54086;50.126;8.710;2022-12-07T00:29:34;4.53;86.71
67157;SHT31;54086;50.126;8.710;2022-12-07T00:31:59;4.61;86.26
67157;SHT31;54086;50.126;8.710;2022-12-07T00:34:24;4.59;86.35
67157;SHT31;54086;50.126;8.710;2022-12-07T00:36:50;4.54;86.70
67157;SHT31;54086;50.126;8.710;2022-12-07T00:39:15;4.43;87.01
67157;SHT31;54086;50.126;8.710;2022-12-07T00:41:41;4.28;87.50
67157;SHT31;54086;50.126;8.710;2022-12-07T00:44:06;4.26;87.72
67157;SHT31;54086;50.126;8.710;2022-12-07T00:46:31;4.22;87.94
67157;SHT31;54086;50.126;8.710;2022-12-07T00:48:57;4.18;88.37
67157;SHT31;54086;50.126;8.710;2022-12-07T00:51:24;4.21;88.32
67157;SHT31;54086;50.126;8.710;2022-12-07T00:53:50;4.13;88.51
67157;SHT31;54086;50.126;8.710;2022-12-07T00:56:27;4.13;88.77
67157;SHT31;54086;50.126;8.710;2022-12-07T00:58:54;4.13;88.76
67157;SHT31;54086;50.126;8.710;2022-12-07T01:01:20;4.03;89.09
67157;SHT31;54086;50.126;8.710;2022-12-07T01:03:46;4.03;89.33
67157;SHT31;54086;50.126;8.710;2022-12-07T01:06:15;4.06;89.22
67157;SHT31;54086;50.126;8.710;2022-12-07T01:08:41;4.05;89.32
67157;SHT31;54086;50.126;8.710;2022-12-07T01:11:09;4.11;89.24
67157;SHT31;54086;50.126;8.710;2022-12-07T01:13:35;4.08;89.26
67157;SHT31;54086;50.126;8.710;2022-12-07T01:16:02;4.12;89.08
67157;SHT31;54086;50.126;8.710;2022-12-07T01:18:33;4.09;89.05
67157;SHT31;54086;50.126;8.710;2022-12-07T01:21:04;4.12;89.07
67157;SHT31;54086;50.126;8.710;2022-12-07T01:23:30;4.06;89.15
67157;SHT31;54086;50.126;8.710;2022-12-07T01:26:01;4.02;89.46
67157;SHT31;54086;50.126;8.710;2022-12-07T01:28:27;3.97;89.64
67157;SHT31;54086;50.126;8.710;2022-12-07T01:31:02;3.92;89.75
67157;SHT31;54086;50.126;8.710;2022-12-07T01:33:30;3.95;89.86
67157;SHT31;54086;50.126;8.710;2022-12-07T01:38:34;3.99;89.62
67157;SHT31;54086;50.126;8.710;2022-12-07T01:41:01;4.02;89.61
67157;SHT31;54086;50.126;8.710;2022-12-07T01:43:28;4.06;89.30
67157;SHT31;54086;50.126;8.710;2022-12-07T01:45:54;4.15;88.82
67157;SHT31;54086;50.126;8.710;2022-12-07T01:48:37;4.16;88.87
67157;SHT31;54086;50.126;8.710;2022-12-07T01:51:09;4.12;88.76
67157;SHT31;54086;50.126;8.710;2022-12-07T01:53:38;4.18;88.93
67157;SHT31;54086;50.126;8.710;2022-12-07T01:56:05;4.19;88.83
67157;SHT31;54086;50.126;8.710;2022-12-07T01:58:33;4.15;88.87
67157;SHT31;54086;50.126;8.710;2022-12-07T02:00:58;4.13;88.98
67157;SHT31;54086;50.126;8.710;2022-12-07T02:03:29;4.11;88.76
67157;SHT31;54086;50.126;8.710;2022-12-07T02:05:56;4.03;88.87
67157;SHT31;54086;50.126;8.710;2022-12-07T02:08:24;4.05;89.13
67157;SHT31;54086;50.126;8.710;2022-12-07T02:10:50;4.05;89.24
67157;SHT31;54086;50.126;8.710;2022-12-07T02:13:19;3.95;89.56
67157;SHT31;54086;50.126;8.710;2022-12-07T02:21:24;3.81;90.36
67157;SHT31;54086;50.126;8.710;2022-12-07T02:29:19;3.66;90.82
67157;SHT31;54086;50.126;8.710;2022-12-07T02:31:55;3.64;90.80
67157;SHT31;54086;50.126;8.710;2022-12-07T02:34:24;3.69;90.71
67157;SHT31;54086;50.126;8.710;2022-12-07T02:36:57;3.70;90.76
67157;SHT31;54086;50.126;8.710;2022-12-07T02:39:44;3.69;90.71
67157;SHT31;54086;50.126;8.710;2022-12-07T02:42:18;3.71;90.81
67157;SHT31;54086;50.126;8.710;2022-12-07T02:44:46;3.75;90.54
67157;SHT31;54086;50.126;8.710;2022-12-07T02:47:14;3.81;90.55
67157;SHT31;54086;50.126;8.710;2022-12-07T02:49:42;3.81;90.36
67157;SHT31;54086;50.126;8.710;2022-12-07T02:52:08;3.78;90.38
67157;SHT31;54086;50.126;8.710;2022-12-07T02:54:33;3.90;90.44
67157;SHT31;54086;50.126;8.710;2022-12-07T02:57:17;3.94;90.18
67157;SHT31;54086;50.126;8.710;2022-12-07T03:00:09;4.01;90.02
67157;SHT31;54086;50.126;8.710;2022-12-07T03:02:58;4.02;89.74
67157;SHT31;54086;50.126;8.710;2022-12-07T03:05:49;3.90;89.89
67157;SHT31;54086;50.126;8.710;2022-12-07T03:16:14;3.75;90.37
67157;SHT31;54086;50.126;8.710;2022-12-07T03:18:44;3.82;90.26
67157;SHT31;54086;50.126;8.710;2022-12-07T03:21:17;3.81;90.29
67157;SHT31;54086;50.126;8.710;2022-12-07T03:23:48;3.84;90.14
67157;SHT31;54086;50.126;8.710;2022-12-07T03:26:16;3.84;90.21
67157;SHT31;54086;50.126;8.710;2022-12-07T03:28:50;3.81;90.03
67157;SHT31;54086;50.126;8.710;2022-12-07T03:31:26;3.77;90.11
67157;SHT31;54086;50.126;8.710;2022-12-07T03:34:01;3.73;90.41
67157;SHT31;54086;50.126;8.710;2022-12-07T03:36:55;3.73;90.34
67157;SHT31;54086;50.126;8.710;2022-12-07T03:39:27;3.61;90.49
67157;SHT31;54086;50.126;8.710;2022-12-07T03:41:55;3.60;90.66
67157;SHT31;54086;50.126;8.710;2022-12-07T03:44:22;3.60;90.69
67157;SHT31;54086;50.126;8.710;2022-12-07T03:47:20;3.61;90.73
67157;SHT31;54086;50.126;8.710;2022-12-07T03:49:58;3.69;90.65
67157;SHT31;54086;50.126;8.710;2022-12-07T03:53:15;3.71;90.61
67157;SHT31;54086;50.126;8.710;2022-12-07T03:57:47;3.70;90.49
67157;SHT31;54086;50.126;8.710;2022-12-07T04:00:15;3.67;90.56
67157;SHT31;54086;50.126;8.710;2022-12-07T04:02:41;3.61;90.86
67157;SHT31;54086;50.126;8.710;2022-12-07T04:05:07;3.70;90.68
67157;SHT31;54086;50.126;8.710;2022-12-07T04:07:33;3.70;90.68
67157;SHT31;54086;50.126;8.710;2022-12-07T04:09:58;3.66;90.84
67157;SHT31;54086;50.126;8.710;2022-12-07T04:12:23;3.70;90.74
67157;SHT31;54086;50.126;8.710;2022-12-07T04:14:49;3.71;90.72
67157;SHT31;54086;50.126;8.710;2022-12-07T04:17:15;3.69;90.68
67157;SHT31;54086;50.126;8.710;2022-12-07T04:19:40;3.67;90.70
67157;SHT31;54086;50.126;8.710;2022-12-07T04:22:06;3.70;90.69
67157;SHT31;54086;50.126;8.710;2022-12-07T04:24:32;3.77;90.58
67157;SHT31;54086;50.126;8.710;2022-12-07T04:26:58;3.80;90.48
67157;SHT31;54086;50.126;8.710;2022-12-07T04:29:23;3.84;90.47
67157;SHT31;54086;50.126;8.710;2022-12-07T04:31:49;3.87;90.40
67157;SHT31;54086;50.126;8.710;2022-12-07T04:34:16;3.95;90.11
67157;SHT31;54086;50.126;8.710;2022-12-07T04:36:43;4.03;89.90
67157;SHT31;54086;50.126;8.710;2022-12-07T04:39:21;4.05;89.89
67157;SHT31;54086;50.126;8.710;2022-12-07T04:41:47;4.05;89.62
67157;SHT31;54086;50.126;8.710;2022-12-07T04:44:12;3.99;89.97
67157;SHT31;54086;50.126;8.710;2022-12-07T04:46:39;3.99;89.85
67157;SHT31;54086;50.126;8.710;2022-12-07T04:49:05;3.94;89.99
67157;SHT31;54086;50.126;8.710;2022-12-07T04:51:30;3.87;90.06
67157;SHT31;54086;50.126;8.710;2022-12-07T04:53:55;3.82;90.28
67157;SHT31;54086;50.126;8.710;2022-12-07T04:56:22;3.81;90.35
67157;SHT31;54086;50.126;8.710;2022-12-07T04:58:48;3.84;90.40
67157;SHT31;54086;50.126;8.710;2022-12-07T05:01:15;3.95;90.12
67157;SHT31;54086;50.126;8.710;2022-12-07T05:03:40;3.91;90.30
67157;SHT31;54086;50.126;8.710;2022-12-07T05:06:07;3.81;90.45
67157;SHT31;54086;50.126;8.710;2022-12-07T05:08:33;3.84;90.38
67157;SHT31;54086;50.126;8.710;2022-12-07T05:11:00;3.81;90.51
67157;SHT31;54086;50.126;8.710;2022-12-07T05:13:25;3.78;90.56
67157;SHT31;54086;50.126;8.710;2022-12-07T05:15:51;3.82;90.66
67157;SHT31;54086;50.126;8.710;2022-12-07T05:18:16;3.84;90.57
67157;SHT31;54086;50.126;8.710;2022-12-07T05:20:42;3.88;90.36
67157;SHT31;54086;50.126;8.710;2022-12-07T05:23:08;3.91;90.35
67157;SHT31;54086;50.126;8.710;2022-12-07T05:25:33;3.95;90.36
67157;SHT31;54086;50.126;8.710;2022-12-07T05:27:59;4.01;90.08
67157;SHT31;54086;50.126;8.710;2022-12-07T05:30:25;4.03;90.02
67157;SHT31;54086;50.126;8.710;2022-12-07T05:32:51;4.03;90.05
67157;SHT31;54086;50.126;8.710;2022-12-07T05:35:17;4.09;90.14
67157;SHT31;54086;50.126;8.710;2022-12-07T05:37:43;4.12;89.93
67157;SHT31;54086;50.126;8.710;2022-12-07T05:40:09;4.16;90.02
67157;SHT31;54086;50.126;8.710;2022-12-07T05:42:34;4.25;89.87
67157;SHT31;54086;50.126;8.710;2022-12-07T05:45:00;4.28;89.80
67157;SHT31;54086;50.126;8.710;2022-12-07T05:47:25;4.39;89.64
67157;SHT31;54086;50.126;8.710;2022-12-07T05:49:50;4.43;89.49
67157;SHT31;54086;50.126;8.710;2022-12-07T05:52:16;4.43;89.41
67157;SHT31;54086;50.126;8.710;2022-12-07T05:54:41;4.53;89.14
67157;SHT31;54086;50.126;8.710;2022-12-07T05:57:07;4.52;89.08
67157;SHT31;54086;50.126;8.710;2022-12-07T05:59:32;4.57;89.01
67157;SHT31;54086;50.126;8.710;2022-12-07T06:02:07;4.52;89.15
67157;SHT31;54086;50.126;8.710;2022-12-07T06:04:38;4.50;89.24
67157;SHT31;54086;50.126;8.710;2022-12-07T06:07:04;4.46;89.48
67157;SHT31;54086;50.126;8.710;2022-12-07T06:09:30;4.39;89.77
67157;SHT31;54086;50.126;8.710;2022-12-07T06:11:56;4.38;89.92
67157;SHT31;54086;50.126;8.710;2022-12-07T06:14:40;4.26;90.21
67157;SHT31;54086;50.126;8.710;2022-12-07T06:17:06;4.30;90.20
67157;SHT31;54086;50.126;8.710;2022-12-07T06:19:31;4.35;90.15
67157;SHT31;54086;50.126;8.710;2022-12-07T06:21:57;4.36;90.22
67157;SHT31;54086;50.126;8.710;2022-12-07T06:24:22;4.32;90.24
67157;SHT31;54086;50.126;8.710;2022-12-07T06:26:48;4.38;90.18
67157;SHT31;54086;50.126;8.710;2022-12-07T06:29:14;4.43;90.02
67157;SHT31;54086;50.126;8.710;2022-12-07T06:31:40;4.45;90.00
67157;SHT31;54086;50.126;8.710;2022-12-07T06:34:12;4.46;89.86
67157;SHT31;54086;50.126;8.710;2022-12-07T06:36:37;4.40;90.04
67157;SHT31;54086;50.126;8.710;2022-12-07T06:39:04;4.43;90.00
67157;SHT31;54086;50.126;8.710;2022-12-07T06:41:30;4.49;89.91
67157;SHT31;54086;50.126;8.710;2022-12-07T06:43:55;4.49;89.99
67157;SHT31;54086;50.126;8.710;2022-12-07T06:46:21;4.50;89.94
67157;SHT31;54086;50.126;8.710;2022-12-07T06:48:47;4.49;89.86
67157;SHT31;54086;50.126;8.710;2022-12-07T06:51:12;4.54;90.02
67157;SHT31;54086;50.126;8.710;2022-12-07T06:53:38;4.50;89.81
67157;SHT31;54086;50.126;8.710;2022-12-07T06:56:04;4.56;89.72
67157;SHT31;54086;50.126;8.710;2022-12-07T06:58:29;4.60;89.66
67157;SHT31;54086;50.126;8.710;2022-12-07T07:00:55;4.73;89.36
67157;SHT31;54086;50.126;8.710;2022-12-07T07:03:20;4.73;89.24
67157;SHT31;54086;50.126;8.710;2022-12-07T07:05:46;4.77;89.07
67157;SHT31;54086;50.126;8.710;2022-12-07T07:08:12;4.74;89.10
67157;SHT31;54086;50.126;8.710;2022-12-07T07:10:37;4.80;89.16
67157;SHT31;54086;50.126;8.710;2022-12-07T07:13:03;4.77;89.12
67157;SHT31;54086;50.126;8.710;2022-12-07T07:15:29;4.83;88.96
67157;SHT31;54086;50.126;8.710;2022-12-07T07:17:54;4.94;88.87
67157;SHT31;54086;50.126;8.710;2022-12-07T07:20:19;4.94;88.54
67157;SHT31;54086;50.126;8.710;2022-12-07T07:22:45;4.92;88.76
67157;SHT31;54086;50.126;8.710;2022-12-07T07:25:11;4.95;88.78
67157;SHT31;54086;50.126;8.710;2022-12-07T07:27:36;5.01;88.54
67157;SHT31;54086;50.126;8.710;2022-12-07T07:30:02;5.05;88.32
67157;SHT31;54086;50.126;8.710;2022-12-07T07:32:27;5.00;88.43
67157;SHT31;54086;50.126;8.710;2022-12-07T07:34:53;4.97;88.40
67157;SHT31;54086;50.126;8.710;2022-12-07T07:37:18;4.92;88.53
67157;SHT31;54086;50.126;8.710;2022-12-07T07:39:43;4.94;88.52
67157;SHT31;54086;50.126;8.710;2022-12-07T07:42:09;5.01;88.43
67157;SHT31;54086;50.126;8.710;2022-12-07T07:44:34;4.91;88.71
67157;SHT31;54086;50.126;8.710;2022-12-07T07:47:00;4.88;89.04
67157;SHT31;54086;50.126;8.710;2022-12-07T07:49:26;4.91;88.98
67157;SHT31;54086;50.126;8.710;2022-12-07T07:51:51;4.85;89.12
67157;SHT31;54086;50.126;8.710;2022-12-07T07:54:16;4.71;89.42
67157;SHT31;54086;50.126;8.710;2022-12-07T07:56:42;4.60;89.63
67157;SHT31;54086;50.126;8.710;2022-12-07T07:59:07;4.54;89.87
67157;SHT31;54086;50.126;8.710;2022-12-07T08:01:33;4.56;89.93
67157;SHT31;54086;50.126;8.710;2022-12-07T08:03:58;4.53;89.93
67157;SHT31;54086;50.126;8.710;2022-12-07T08:06:27;4.63;89.79
67157;SHT31;54086;50.126;8.710;2022-12-07T08:08:52;4.57;89.76
67157;SHT31;54086;50.126;8.710;2022-12-07T08:11:18;4.61;89.59
67157;SHT31;54086;50.126;8.710;2022-12-07T08:13:45;4.60;89.54
67157;SHT31;54086;50.126;8.710;2022-12-07T08:16:12;4.67;89.55
67157;SHT31;54086;50.126;8.710;2022-12-07T08:18:39;4.57;89.56
67157;SHT31;54086;50.126;8.710;2022-12-07T08:21:06;4.59;89.58
67157;SHT31;54086;50.126;8.710;2022-12-07T08:23:33;4.69;89.37
67157;SHT31;54086;50.126;8.710;2022-12-07T08:26:11;4.60;89.32
67157;SHT31;54086;50.126;8.710;2022-12-07T08:28:37;4.70;89.32
67157;SHT31;54086;50.126;8.710;2022-12-07T08:31:11;4.81;89.03
67157;SHT31;54086;50.126;8.710;2022-12-07T08:33:40;4.80;88.97
67157;SHT31;54086;50.126;8.710;2022-12-07T08:36:08;4.71;89.17
67157;SHT31;54086;50.126;8.710;2022-12-07T08:38:38;4.73;89.19
67157;SHT31;54086;50.126;8.710;2022-12-07T08:41:04;4.85;88.82
67157;SHT31;54086;50.126;8.710;2022-12-07T08:43:30;4.83;88.86
67157;SHT31;54086;50.126;8.710;2022-12-07T08:48:27;4.73;89.13
67157;SHT31;54086;50.126;8.710;2022-12-07T08:50:52;4.71;89.32
67157;SHT31;54086;50.126;8.710;2022-12-07T08:53:18;4.76;89.12
67157;SHT31;54086;50.126;8.710;2022-12-07T08:55:45;5.12;88.24
67157;SHT31;54086;50.126;8.710;2022-12-07T08:58:11;5.46;87.31
67157;SHT31;54086;50.126;8.710;2022-12-07T09:00:36;5.59;86.78
67157;SHT31;54086;50.126;8.710;2022-12-07T09:03:01;5.43;86.97
67157;SHT31;54086;50.126;8.710;2022-12-07T09:05:27;5.62;86.92
67157;SHT31;54086;50.126;8.710;2022-12-07T09:07:57;5.53;86.83
67157;SHT31;54086;50.126;8.710;2022-12-07T09:10:22;5.35;87.19
67157;SHT31;54086;50.126;8.710;2022-12-07T09:12:48;5.85;86.28
67157;SHT31;54086;50.126;8.710;2022-12-07T09:15:14;6.51;84.14
67157;SHT31;54086;50.126;8.710;2022-12-07T09:17:39;7.07;82.91
67157;SHT31;54086;50.126;8.710;2022-12-07T09:20:05;7.26;81.12
67157;SHT31;54086;50.126;8.710;2022-12-07T09:22:31;7.46;81.03
67157;SHT31;54086;50.126;8.710;2022-12-07T09:24:58;7.50;80.98
67157;SHT31;54086;50.126;8.710;2022-12-07T09:27:24;7.71;80.17
67157;SHT31;54086;50.126;8.710;2022-12-07T09:29:49;7.88;79.30
67157;SHT31;54086;50.126;8.710;2022-12-07T09:32:15;8.06;78.55
67157;SHT31;54086;50.126;8.710;2022-12-07T09:34:40;7.96;79.14
67157;SHT31;54086;50.126;8.710;2022-12-07T09:37:06;7.85;79.24
67157;SHT31;54086;50.126;8.710;2022-12-07T09:39:31;7.52;79.98
67157;SHT31;54086;50.126;8.710;2022-12-07T09:41:58;7.21;79.98
67157;SHT31;54086;50.126;8.710;2022-12-07T09:44:25;7.19;80.74
67157;SHT31;54086;50.126;8.710;2022-12-07T09:46:51;6.90;81.05
67157;SHT31;54086;50.126;8.710;2022-12-07T09:49:20;6.80;81.39
67157;SHT31;54086;50.126;8.710;2022-12-07T09:51:46;6.52;82.26
67157;SHT31;54086;50.126;8.710;2022-12-07T09:54:13;6.75;82.14
67157;SHT31;54086;50.126;8.710;2022-12-07T09:56:40;6.61;81.82
67157;SHT31;54086;50.126;8.710;2022-12-07T09:59:05;6.53;82.38
67157;SHT31;54086;50.126;8.710;2022-12-07T10:01:32;6.49;82.43
67157;SHT31;54086;50.126;8.710;2022-12-07T10:04:20;6.41;82.76
67157;SHT31;54086;50.126;8.710;2022-12-07T10:06:48;6.48;82.85
67157;SHT31;54086;50.126;8.710;2022-12-07T10:09:16;6.48;82.97
67157;SHT31;54086;50.126;8.710;2022-12-07T10:14:28;6.62;82.48
67157;SHT31;54086;50.126;8.710;2022-12-07T10:16:55;6.56;82.31
67157;SHT31;54086;50.126;8.710;2022-12-07T10:19:25;6.65;82.24
67157;SHT31;54086;50.126;8.710;2022-12-07T10:22:15;6.71;82.04
67157;SHT31;54086;50.126;8.710;2022-12-07T10:24:43;6.90;81.86
67157;SHT31;54086;50.126;8.710;2022-12-07T10:29:48;6.59;81.75
67157;SHT31;54086;50.126;8.710;2022-12-07T10:34:41;6.62;81.77
67157;SHT31;54086;50.126;8.710;2022-12-07T10:42:35;6.55;79.91
67157;SHT31;54086;50.126;8.710;2022-12-07T10:45:12;6.55;80.13
67157;SHT31;54086;50.126;8.710;2022-12-07T10:47:51;6.55;79.93
67157;SHT31;54086;50.126;8.710;2022-12-07T11:01:37;6.61;78.78
67157;SHT31;54086;50.126;8.710;2022-12-07T11:07:10;6.85;77.92
67157;SHT31;54086;50.126;8.710;2022-12-07T11:15:22;7.43;76.45
67157;SHT31;54086;50.126;8.710;2022-12-07T11:18:21;7.58;75.95
67157;SHT31;54086;50.126;8.710;2022-12-07T11:23:48;7.26;75.81
67157;SHT31;54086;50.126;8.710;2022-12-07T11:34:24;6.89;76.56
67157;SHT31;54086;50.126;8.710;2022-12-07T11:36:55;6.88;76.80
67157;SHT31;54086;50.126;8.710;2022-12-07T11:41:59;7.07;76.27
67157;SHT31;54086;50.126;8.710;2022-12-07T11:47:34;7.21;75.45
67157;SHT31;54086;50.126;8.710;2022-12-07T11:52:57;7.21;75.71
67157;SHT31;54086;50.126;8.710;2022-12-07T11:55:49;7.20;75.97
67157;SHT31;54086;50.126;8.710;2022-12-07T12:06:34;7.21;75.46
67157;SHT31;54086;50.126;8.710;2022-12-07T12:09:22;7.31;74.72
67157;SHT31;54086;50.126;8.710;2022-12-07T12:20:30;7.38;73.42
67157;SHT31;54086;50.126;8.710;2022-12-07T12:22:39;7.48;73.44
67157;SHT31;54086;50.126;8.710;2022-12-07T12:25:13;7.58;73.33
67157;SHT31;54086;50.126;8.710;2022-12-07T12:27:45;7.40;73.59
67157;SHT31;54086;50.126;8.710;2022-12-07T12:30:31;7.34;73.84
67157;SHT31;54086;50.126;8.710;2022-12-07T12:33:27;7.32;73.93
67157;SHT31;54086;50.126;8.710;2022-12-07T12:39:16;7.38;74.36
67157;SHT31;54086;50.126;8.710;2022-12-07T12:46:57;7.55;74.54
67157;SHT31;54086;50.126;8.710;2022-12-07T12:49:41;7.57;74.54
67157;SHT31;54086;50.126;8.710;2022-12-07T12:54:58;7.51;74.47
67157;SHT31;54086;50.126;8.710;2022-12-07T12:57:31;7.54;74.66
67157;SHT31;54086;50.126;8.710;2022-12-07T13:00:02;7.46;74.62
67157;SHT31;54086;50.126;8.710;2022-12-07T13:02:56;7.28;75.81
67157;SHT31;54086;50.126;8.710;2022-12-07T13:05:31;7.32;76.70
67157;SHT31;54086;50.126;8.710;2022-12-07T13:08:14;7.46;76.61
67157;SHT31;54086;50.126;8.710;2022-12-07T13:10:43;7.51;75.99
67157;SHT31;54086;50.126;8.710;2022-12-07T13:15:41;7.19;76.71
67157;SHT31;54086;50.126;8.710;2022-12-07T13:33:47;6.93;82.72
67157;SHT31;54086;50.126;8.710;2022-12-07T13:36:24;6.85;82.32
67157;SHT31;54086;50.126;8.710;2022-12-07T13:38:58;6.85;82.34
67157;SHT31;54086;50.126;8.710;2022-12-07T13:41:28;6.73;81.90
67157;SHT31;54086;50.126;8.710;2022-12-07T13:44:12;6.80;82.52
67157;SHT31;54086;50.126;8.710;2022-12-07T13:47:09;6.85;80.18
67157;SHT31;54086;50.126;8.710;2022-12-07T13:49:46;6.65;79.28
67157;SHT31;54086;50.126;8.710;2022-12-07T13:54:56;6.62;80.20
67157;SHT31;54086;50.126;8.710;2022-12-07T13:57:24;6.65;80.03
67157;SHT31;54086;50.126;8.710;2022-12-07T13:59:50;6.75;81.02
67157;SHT31;54086;50.126;8.710;2022-12-07T14:02:22;6.69;79.83
67157;SHT31;54086;50.126;8.710;2022-12-07T14:04:50;6.64;79.64
67157;SHT31;54086;50.126;8.710;2022-12-07T14:07:26;6.67;79.59
67157;SHT31;54086;50.126;8.710;2022-12-07T14:10:05;6.52;79.75
67157;SHT31;54086;50.126;8.710;2022-12-07T14:12:32;6.56;80.73
67157;SHT31;54086;50.126;8.710;2022-12-07T14:14:59;6.55;79.53
67157;SHT31;54086;50.126;8.710;2022-12-07T14:17:28;6.49;79.92
67157;SHT31;54086;50.126;8.710;2022-12-07T14:19:59;6.44;80.33
67157;SHT31;54086;50.126;8.710;2022-12-07T14:22:33;6.56;81.11
67157;SHT31;54086;50.126;8.710;2022-12-07T14:27:34;6.53;80.25
67157;SHT31;54086;50.126;8.710;2022-12-07T14:30:01;6.41;80.10
67157;SHT31;54086;50.126;8.710;2022-12-07T14:32:28;6.49;80.34
67157;SHT31;54086;50.126;8.710;2022-12-07T14:35:10;6.37;80.37
67157;SHT31;54086;50.126;8.710;2022-12-07T14:37:37;6.49;80.79
67157;SHT31;54086;50.126;8.710;2022-12-07T14:40:03;6.41;80.54
67157;SHT31;54086;50.126;8.710;2022-12-07T14:42:30;6.42;80.55
67157;SHT31;54086;50.126;8.710;2022-12-07T14:44:57;6.38;80.67
67157;SHT31;54086;50.126;8.710;2022-12-07T14:47:24;6.38;80.75
67157;SHT31;54086;50.126;8.710;2022-12-07T14:49:49;6.34;80.86
67157;SHT31;54086;50.126;8.710;2022-12-07T14:52:20;6.37;81.31
67157;SHT31;54086;50.126;8.710;2022-12-07T14:54:45;6.28;82.03
67157;SHT31;54086;50.126;8.710;2022-12-07T14:57:11;6.13;81.72
67157;SHT31;54086;50.126;8.710;2022-12-07T14:59:37;5.99;82.31
67157;SHT31;54086;50.126;8.710;2022-12-07T15:02:03;6.03;82.48
67157;SHT31;54086;50.126;8.710;2022-12-07T15:04:28;6.06;82.84
67157;SHT31;54086;50.126;8.710;2022-12-07T15:06:56;6.06;82.67
67157;SHT31;54086;50.126;8.710;2022-12-07T15:09:21;5.94;82.78
67157;SHT31;54086;50.126;8.710;2022-12-07T15:11:47;5.86;83.21
67157;SHT31;54086;50.126;8.710;2022-12-07T15:14:12;5.85;83.92
67157;SHT31;54086;50.126;8.710;2022-12-07T15:16:39;5.85;84.37
67157;SHT31;54086;50.126;8.710;2022-12-07T15:19:09;5.81;84.82
67157;SHT31;54086;50.126;8.710;2022-12-07T15:21:35;5.72;84.91
67157;SHT31;54086;50.126;8.710;2022-12-07T15:24:00;5.76;84.81
67157;SHT31;54086;50.126;8.710;2022-12-07T15:26:26;5.63;84.97
67157;SHT31;54086;50.126;8.710;2022-12-07T15:28:52;5.79;85.15
67157;SHT31;54086;50.126;8.710;2022-12-07T15:31:18;5.89;84.85
67157;SHT31;54086;50.126;8.710;2022-12-07T15:33:44;5.79;84.64
67157;SHT31;54086;50.126;8.710;2022-12-07T15:36:19;5.76;84.58
67157;SHT31;54086;50.126;8.710;2022-12-07T15:38:45;5.74;84.73
67157;SHT31;54086;50.126;8.710;2022-12-07T15:41:11;5.73;84.33
67157;SHT31;54086;50.126;8.710;2022-12-07T15:43:36;5.72;83.88
67157;SHT31;54086;50.126;8.710;2022-12-07T15:46:20;5.79;84.24
67157;SHT31;54086;50.126;8.710;2022-12-07T15:48:46;5.83;83.82
67157;SHT31;54086;50.126;8.710;2022-12-07T15:51:11;5.81;83.84
67157;SHT31;54086;50.126;8.710;2022-12-07T15:53:36;5.79;83.73
67157;SHT31;54086;50.126;8.710;2022-12-07T15:56:06;5.69;83.88
67157;SHT31;54086;50.126;8.710;2022-12-07T15:58:31;5.67;84.03
67157;SHT31;54086;50.126;8.710;2022-12-07T16:00:57;5.62;84.27
67157;SHT31;54086;50.126;8.710;2022-12-07T16:03:22;5.56;84.49
67157;SHT31;54086;50.126;8.710;2022-12-07T16:05:51;5.69;84.70
67157;SHT31;54086;50.126;8.710;2022-12-07T16:08:17;5.69;84.49
67157;SHT31;54086;50.126;8.710;2022-12-07T16:10:42;5.58;84.95
67157;SHT31;54086;50.126;8.710;2022-12-07T16:13:09;5.60;85.10
67157;SHT31;54086;50.126;8.710;2022-12-07T16:15:40;5.58;85.12
67157;SHT31;54086;50.126;8.710;2022-12-07T16:18:06;5.55;85.06
67157;SHT31;54086;50.126;8.710;2022-12-07T16:20:31;5.43;85.24
67157;SHT31;54086;50.126;8.710;2022-12-07T16:22:57;5.45;85.53
67157;SHT31;54086;50.126;8.710;2022-12-07T16:25:23;5.46;85.50
67157;SHT31;54086;50.126;8.710;2022-12-07T16:27:48;5.42;85.55
67157;SHT31;54086;50.126;8.710;2022-12-07T16:30:14;5.39;85.62
67157;SHT31;54086;50.126;8.710;2022-12-07T16:32:41;5.46;85.37
67157;SHT31;54086;50.126;8.710;2022-12-07T16:35:06;5.56;85.29
67157;SHT31;54086;50.126;8.710;2022-12-07T16:37:32;5.56;85.05
67157;SHT31;54086;50.126;8.710;2022-12-07T16:39:57;5.62;85.05
67157;SHT31;54086;50.126;8.710;2022-12-07T16:42:23;5.58;84.99
67157;SHT31;54086;50.126;8.710;2022-12-07T16:44:48;5.58;84.96
67157;SHT31;54086;50.126;8.710;2022-12-07T16:47:13;5.50;84.85
67157;SHT31;54086;50.126;8.710;2022-12-07T16:49:38;5.62;84.94
67157;SHT31;54086;50.126;8.710;2022-12-07T16:52:04;5.66;84.80
67157;SHT31;54086;50.126;8.710;2022-12-07T16:54:29;5.67;84.74
67157;SHT31;54086;50.126;8.710;2022-12-07T16:56:58;5.69;84.68
67157;SHT31;54086;50.126;8.710;2022-12-07T16:59:23;5.70;84.34
67157;SHT31;54086;50.126;8.710;2022-12-07T17:01:48;5.62;84.05
67157;SHT31;54086;50.126;8.710;2022-12-07T17:04:14;5.63;84.25
67157;SHT31;54086;50.126;8.710;2022-12-07T17:06:39;5.66;83.92
67157;SHT31;54086;50.126;8.710;2022-12-07T17:09:04;5.67;83.82
67157;SHT31;54086;50.126;8.710;2022-12-07T17:11:34;5.63;83.91
67157;SHT31;54086;50.126;8.710;2022-12-07T17:13:59;5.48;83.76
67157;SHT31;54086;50.126;8.710;2022-12-07T17:16:43;5.43;84.26
67157;SHT31;54086;50.126;8.710;2022-12-07T17:19:15;5.48;84.32
67157;SHT31;54086;50.126;8.710;2022-12-07T17:21:42;5.49;84.34
67157;SHT31;54086;50.126;8.710;2022-12-07T17:24:09;5.48;84.47
67157;SHT31;54086;50.126;8.710;2022-12-07T17:26:36;5.48;84.93
67157;SHT31;54086;50.126;8.710;2022-12-07T17:29:03;5.46;84.91
67157;SHT31;54086;50.126;8.710;2022-12-07T17:31:29;5.48;84.88
67157;SHT31;54086;50.126;8.710;2022-12-07T17:33:54;5.53;85.11
67157;SHT31;54086;50.126;8.710;2022-12-07T17:36:23;5.46;84.96
67157;SHT31;54086;50.126;8.710;2022-12-07T17:38:49;5.53;84.99
67157;SHT31;54086;50.126;8.710;2022-12-07T17:41:18;5.52;85.23
67157;SHT31;54086;50.126;8.710;2022-12-07T17:44:03;5.59;85.32
67157;SHT31;54086;50.126;8.710;2022-12-07T17:46:29;5.55;85.12
67157;SHT31;54086;50.126;8.710;2022-12-07T17:48:55;5.53;84.96
67157;SHT31;54086;50.126;8.710;2022-12-07T17:51:21;5.43;85.33
67157;SHT31;54086;50.126;8.710;2022-12-07T17:54:05;5.45;85.29
67157;SHT31;54086;50.126;8.710;2022-12-07T17:56:30;5.42;85.44
67157;SHT31;54086;50.126;8.710;2022-12-07T17:58:56;5.45;85.45
67157;SHT31;54086;50.126;8.710;2022-12-07T18:01:21;5.45;84.71
67157;SHT31;54086;50.126;8.710;2022-12-07T18:03:47;5.46;84.72